GLO1854 SBGL-SBNF
Flight info
| Callsign | GLO1854 |
|---|---|
| Flight time | N/A |
| Altitude | 36000 |
| Route | NAXOP DCT KOXAG DCT PUBIS |
| Aircraft | B738/M-SDE2E3FGHIRWXY/LB1 |
Departure
| Time | N/A |
|---|---|
| Airport | Rio Galeão – Tom Jobim International Airport (SBGL) |
Arrival
| Time | 2026-05-03 21:32 |
|---|---|
| Airport | Ministro Victor Konder International Airport (SBNF) |
| Time | Latitude | Longitude | Altitude | Speed | Heading |
|---|---|---|---|---|---|
| 2026-05-03 20:56 | -25.05770 | -46.82632 | 36194 ft | 359 kts | 244° |
| 2026-05-03 20:56 | -25.07086 | -46.84974 | 36192 ft | 359 kts | 244° |
| 2026-05-03 20:57 | -25.09723 | -46.89674 | 36197 ft | 360 kts | 244° |
| 2026-05-03 20:57 | -25.12394 | -46.94446 | 36195 ft | 361 kts | 244° |
| 2026-05-03 20:58 | -25.15382 | -46.99041 | 36194 ft | 366 kts | 236° |
| 2026-05-03 20:58 | -25.18901 | -47.03241 | 36197 ft | 369 kts | 234° |
| 2026-05-03 20:59 | -25.22426 | -47.07370 | 36197 ft | 368 kts | 234° |
| 2026-05-03 20:59 | -25.25934 | -47.11488 | 36199 ft | 369 kts | 234° |
| 2026-05-03 21:00 | -25.28855 | -47.14923 | 36197 ft | 370 kts | 234° |
| 2026-05-03 21:00 | -25.32992 | -47.19784 | 36187 ft | 367 kts | 234° |
| 2026-05-03 21:01 | -25.36490 | -47.23899 | 36179 ft | 369 kts | 234° |
| 2026-05-03 21:01 | -25.39809 | -47.27813 | 36177 ft | 369 kts | 234° |
| 2026-05-03 21:02 | -25.43332 | -47.31965 | 36182 ft | 370 kts | 234° |
| 2026-05-03 21:02 | -25.46849 | -47.36111 | 36191 ft | 367 kts | 234° |
| 2026-05-03 21:03 | -25.50321 | -47.40209 | 36092 ft | 363 kts | 234° |
| 2026-05-03 21:03 | -25.52057 | -47.42260 | 35650 ft | 366 kts | 234° |
| 2026-05-03 21:03 | -25.53831 | -47.44367 | 34926 ft | 374 kts | 234° |
| 2026-05-03 21:04 | -25.55596 | -47.46460 | 34196 ft | 376 kts | 234° |
| 2026-05-03 21:04 | -25.57384 | -47.48574 | 33466 ft | 375 kts | 234° |
| 2026-05-03 21:04 | -25.59184 | -47.50702 | 32778 ft | 374 kts | 234° |
| 2026-05-03 21:04 | -25.60964 | -47.52808 | 32105 ft | 375 kts | 234° |
| 2026-05-03 21:05 | -25.62724 | -47.54894 | 31434 ft | 376 kts | 234° |
| 2026-05-03 21:05 | -25.64516 | -47.57019 | 30753 ft | 379 kts | 234° |
| 2026-05-03 21:05 | -25.66324 | -47.59166 | 30074 ft | 381 kts | 234° |
| 2026-05-03 21:05 | -25.68145 | -47.61327 | 29449 ft | 383 kts | 234° |
| 2026-05-03 21:06 | -25.69961 | -47.63479 | 29061 ft | 374 kts | 234° |
| 2026-05-03 21:06 | -25.71715 | -47.65547 | 28803 ft | 357 kts | 234° |
| 2026-05-03 21:06 | -25.73393 | -47.67530 | 28559 ft | 344 kts | 234° |
| 2026-05-03 21:06 | -25.75020 | -47.69463 | 28302 ft | 334 kts | 234° |
| 2026-05-03 21:07 | -25.76588 | -47.71332 | 28049 ft | 325 kts | 234° |
| 2026-05-03 21:07 | -25.78126 | -47.73169 | 27793 ft | 317 kts | 234° |
| 2026-05-03 21:07 | -25.79624 | -47.74958 | 27541 ft | 314 kts | 234° |
| 2026-05-03 21:07 | -25.81113 | -47.76739 | 27290 ft | 316 kts | 234° |
| 2026-05-03 21:08 | -25.82601 | -47.78521 | 27050 ft | 320 kts | 234° |
| 2026-05-03 21:08 | -25.84119 | -47.80335 | 26798 ft | 321 kts | 234° |
| 2026-05-03 21:08 | -25.85689 | -47.82207 | 26543 ft | 320 kts | 234° |
| 2026-05-03 21:08 | -25.87227 | -47.84041 | 26287 ft | 318 kts | 234° |
| 2026-05-03 21:09 | -25.88720 | -47.85823 | 26042 ft | 316 kts | 233° |
| 2026-05-03 21:09 | -25.90233 | -47.87629 | 25793 ft | 315 kts | 233° |
| 2026-05-03 21:09 | -25.91761 | -47.89455 | 25539 ft | 315 kts | 233° |
| 2026-05-03 21:09 | -25.93305 | -47.91300 | 25283 ft | 315 kts | 233° |
| 2026-05-03 21:10 | -25.94841 | -47.93137 | 25035 ft | 315 kts | 232° |
| 2026-05-03 21:10 | -25.96352 | -47.94944 | 24788 ft | 315 kts | 232° |
| 2026-05-03 21:10 | -25.97843 | -47.96727 | 24540 ft | 314 kts | 232° |
| 2026-05-03 21:10 | -25.99340 | -47.98519 | 24288 ft | 313 kts | 232° |
| 2026-05-03 21:11 | -26.00805 | -48.00273 | 24044 ft | 312 kts | 232° |
| 2026-05-03 21:11 | -26.02294 | -48.02057 | 23799 ft | 311 kts | 232° |
| 2026-05-03 21:11 | -26.03771 | -48.03798 | 23557 ft | 312 kts | 230° |
| 2026-05-03 21:11 | -26.05332 | -48.05483 | 23312 ft | 313 kts | 228° |
| 2026-05-03 21:12 | -26.06921 | -48.07140 | 23066 ft | 313 kts | 227° |
| 2026-05-03 21:12 | -26.08559 | -48.08750 | 22817 ft | 312 kts | 225° |
| 2026-05-03 21:12 | -26.10197 | -48.10316 | 22571 ft | 311 kts | 225° |
| 2026-05-03 21:12 | -26.11842 | -48.11893 | 22327 ft | 312 kts | 225° |
| 2026-05-03 21:13 | -26.13487 | -48.13476 | 22076 ft | 313 kts | 225° |
| 2026-05-03 21:13 | -26.15158 | -48.15087 | 21827 ft | 311 kts | 225° |
| 2026-05-03 21:13 | -26.16803 | -48.16671 | 21553 ft | 303 kts | 225° |
| 2026-05-03 21:13 | -26.18398 | -48.18208 | 21261 ft | 300 kts | 225° |
| 2026-05-03 21:14 | -26.20038 | -48.19797 | 20867 ft | 306 kts | 225° |
| 2026-05-03 21:14 | -26.21671 | -48.21380 | 20445 ft | 312 kts | 225° |
| 2026-05-03 21:14 | -26.23315 | -48.22969 | 20012 ft | 311 kts | 225° |
| 2026-05-03 21:14 | -26.24927 | -48.24528 | 19595 ft | 308 kts | 225° |
| 2026-05-03 21:15 | -26.26549 | -48.26097 | 19172 ft | 306 kts | 225° |
| 2026-05-03 21:15 | -26.28135 | -48.27632 | 18815 ft | 302 kts | 225° |
| 2026-05-03 21:15 | -26.29719 | -48.29169 | 18420 ft | 300 kts | 225° |
| 2026-05-03 21:15 | -26.31279 | -48.30683 | 18013 ft | 300 kts | 225° |
| 2026-05-03 21:16 | -26.32881 | -48.32240 | 17610 ft | 304 kts | 224° |
| 2026-05-03 21:16 | -26.34499 | -48.33811 | 17191 ft | 307 kts | 224° |
| 2026-05-03 21:16 | -26.36116 | -48.35379 | 16755 ft | 305 kts | 224° |
| 2026-05-03 21:16 | -26.37735 | -48.36949 | 16341 ft | 303 kts | 224° |
| 2026-05-03 21:17 | -26.39357 | -48.38524 | 15919 ft | 301 kts | 224° |
| 2026-05-03 21:17 | -26.40429 | -48.39565 | 15640 ft | 300 kts | 224° |
| 2026-05-03 21:17 | -26.42531 | -48.41609 | 15093 ft | 298 kts | 224° |
| 2026-05-03 21:17 | -26.44091 | -48.43127 | 14686 ft | 296 kts | 224° |
| 2026-05-03 21:18 | -26.45693 | -48.44686 | 14276 ft | 295 kts | 224° |
| 2026-05-03 21:18 | -26.47233 | -48.46184 | 13878 ft | 294 kts | 224° |
| 2026-05-03 21:18 | -26.48770 | -48.47680 | 13472 ft | 293 kts | 224° |
| 2026-05-03 21:18 | -26.50324 | -48.49193 | 13071 ft | 291 kts | 224° |
| 2026-05-03 21:19 | -26.51856 | -48.50686 | 12667 ft | 290 kts | 224° |
| 2026-05-03 21:19 | -26.53411 | -48.52201 | 12270 ft | 288 kts | 224° |
| 2026-05-03 21:19 | -26.54920 | -48.53673 | 11879 ft | 287 kts | 224° |
| 2026-05-03 21:19 | -26.56456 | -48.55172 | 11478 ft | 286 kts | 223° |
| 2026-05-03 21:20 | -26.57962 | -48.56641 | 11086 ft | 284 kts | 223° |
| 2026-05-03 21:20 | -26.59482 | -48.58124 | 10684 ft | 283 kts | 223° |
| 2026-05-03 21:20 | -26.60995 | -48.59601 | 10294 ft | 281 kts | 223° |
| 2026-05-03 21:20 | -26.62477 | -48.61047 | 10090 ft | 272 kts | 223° |
| 2026-05-03 21:21 | -26.63882 | -48.62419 | 9815 ft | 268 kts | 223° |
| 2026-05-03 21:21 | -26.65290 | -48.63798 | 9403 ft | 269 kts | 223° |
| 2026-05-03 21:21 | -26.66696 | -48.65173 | 9044 ft | 268 kts | 223° |
| 2026-05-03 21:21 | -26.68100 | -48.66546 | 8693 ft | 261 kts | 223° |
| 2026-05-03 21:22 | -26.69442 | -48.67857 | 8358 ft | 254 kts | 224° |
| 2026-05-03 21:22 | -26.70753 | -48.69141 | 8035 ft | 247 kts | 224° |
| 2026-05-03 21:22 | -26.72043 | -48.70405 | 7708 ft | 241 kts | 224° |
| 2026-05-03 21:22 | -26.73290 | -48.71626 | 7403 ft | 235 kts | 224° |
| 2026-05-03 21:23 | -26.74527 | -48.72839 | 7092 ft | 231 kts | 224° |
| 2026-05-03 21:23 | -26.75737 | -48.74026 | 6674 ft | 232 kts | 224° |
| 2026-05-03 21:23 | -26.76969 | -48.75235 | 6262 ft | 233 kts | 224° |
| 2026-05-03 21:23 | -26.78174 | -48.76415 | 5955 ft | 228 kts | 223° |
| 2026-05-03 21:24 | -26.79343 | -48.77562 | 5676 ft | 224 kts | 223° |
| 2026-05-03 21:24 | -26.80518 | -48.78716 | 5387 ft | 223 kts | 223° |
| 2026-05-03 21:24 | -26.81697 | -48.79873 | 5091 ft | 222 kts | 222° |
| 2026-05-03 21:24 | -26.82851 | -48.81006 | 4796 ft | 222 kts | 222° |
| 2026-05-03 21:25 | -26.84013 | -48.82147 | 4509 ft | 222 kts | 221° |
| 2026-05-03 21:25 | -26.85187 | -48.83299 | 4284 ft | 218 kts | 221° |
| 2026-05-03 21:25 | -26.86095 | -48.84190 | 4227 ft | 209 kts | 221° |
| 2026-05-03 21:25 | -26.87180 | -48.85257 | 4175 ft | 207 kts | 221° |
| 2026-05-03 21:26 | -26.88363 | -48.86251 | 4100 ft | 212 kts | 205° |
| 2026-05-03 21:26 | -26.89789 | -48.86583 | 3997 ft | 210 kts | 173° |
| 2026-05-03 21:26 | -26.91186 | -48.86182 | 3758 ft | 207 kts | 150° |
| 2026-05-03 21:26 | -26.92387 | -48.85329 | 3543 ft | 201 kts | 142° |
| 2026-05-03 21:27 | -26.93539 | -48.84443 | 3344 ft | 195 kts | 142° |
| 2026-05-03 21:27 | -26.94652 | -48.83602 | 3136 ft | 189 kts | 142° |
| 2026-05-03 21:27 | -26.95708 | -48.82772 | 2955 ft | 181 kts | 136° |
| 2026-05-03 21:27 | -26.96312 | -48.81634 | 2777 ft | 165 kts | 90° |
| 2026-05-03 21:28 | -26.96111 | -48.80390 | 2673 ft | 163 kts | 75° |
| 2026-05-03 21:28 | -26.95806 | -48.79131 | 2450 ft | 171 kts | 70° |
| 2026-05-03 21:28 | -26.95362 | -48.77934 | 2273 ft | 157 kts | 64° |
| 2026-05-03 21:28 | -26.94884 | -48.76884 | 2133 ft | 150 kts | 61° |
| 2026-05-03 21:29 | -26.94353 | -48.75849 | 1995 ft | 154 kts | 59° |
| 2026-05-03 21:29 | -26.93785 | -48.74826 | 1872 ft | 153 kts | 58° |
| 2026-05-03 21:29 | -26.93208 | -48.73828 | 1696 ft | 150 kts | 57° |
| 2026-05-03 21:29 | -26.92641 | -48.72869 | 1508 ft | 145 kts | 57° |
| 2026-05-03 21:30 | -26.92092 | -48.71945 | 1323 ft | 141 kts | 56° |
| 2026-05-03 21:30 | -26.91546 | -48.71038 | 1142 ft | 140 kts | 56° |
| 2026-05-03 21:30 | -26.90993 | -48.70121 | 952 ft | 142 kts | 56° |
| 2026-05-03 21:30 | -26.90436 | -48.69205 | 761 ft | 142 kts | 55° |
| 2026-05-03 21:31 | -26.89877 | -48.68283 | 572 ft | 142 kts | 55° |
| 2026-05-03 21:31 | -26.89320 | -48.67363 | 398 ft | 144 kts | 55° |
| 2026-05-03 21:31 | -26.88757 | -48.66434 | 221 ft | 143 kts | 54° |
| 2026-05-03 21:31 | -26.88208 | -48.65529 | 33 ft | 137 kts | 55° |
| 2026-05-03 21:32 | -26.87815 | -48.64881 | 29 ft | 57 kts | 56° |
| 2026-05-03 21:32 | -26.87676 | -48.64652 | 29 ft | 29 kts | 57° |
| 2026-05-03 21:32 | -26.87576 | -48.64490 | 29 ft | 22 kts | 55° |
| 2026-05-03 21:32 | -26.87468 | -48.64375 | 29 ft | 20 kts | 24° |
| 2026-05-03 21:33 | -26.87475 | -48.64330 | 29 ft | 11 kts | 231° |
| 2026-05-03 21:33 | -26.87536 | -48.64427 | 29 ft | 18 kts | 236° |
| 2026-05-03 21:33 | -26.87608 | -48.64544 | 29 ft | 17 kts | 236° |
| 2026-05-03 21:33 | -26.87675 | -48.64657 | 29 ft | 16 kts | 237° |
| 2026-05-03 21:34 | -26.87737 | -48.64759 | 29 ft | 14 kts | 233° |
| 2026-05-03 21:34 | -26.87793 | -48.64843 | 29 ft | 10 kts | 235° |
| 2026-05-03 21:34 | -26.87847 | -48.64876 | 29 ft | 8 kts | 157° |
| 2026-05-03 21:34 | -26.87890 | -48.64848 | 29 ft | 5 kts | 177° |
| 2026-05-03 21:35 | -26.87927 | -48.64874 | 29 ft | 7 kts | 232° |
| 2026-05-03 21:35 | -26.87956 | -48.64921 | 29 ft | 6 kts | 234° |
| 2026-05-03 21:35 | -26.87984 | -48.64954 | 29 ft | 4 kts | 195° |
| 2026-05-03 21:35 | -26.88007 | -48.64947 | 29 ft | 3 kts | 156° |
| 2026-05-03 21:36 | -26.88019 | -48.64938 | 29 ft | 0 kts | 146° |